This is the latest recevied weather packets stored in our database for station/object DH7LK-5. If no packets are shown the sender has not sent any weather packets the latest 10 day(s).
| Time | Temp. | Humidity | Pressure | Rain* | Wind** | Luminosity | Snow |
|---|---|---|---|---|---|---|---|
| 1777862623 | 17.22° C | 65% | 1011.4 hPa | 0 mm | - | - | - |
| 1777860822 | 17.78° C | 60% | 1011.3 hPa | 0 mm | - | - | - |
| 1777859022 | 18.33° C | 57% | 1011 hPa | 0 mm | - | - | - |
| 1777857222 | 18.33° C | 56% | 1010.9 hPa | 0 mm | - | - | - |
| 1777855419 | 19.44° C | 53% | 1010.7 hPa | 0 mm | - | - | - |
| 1777853618 | 20° C | 51% | 1010.7 hPa | 0 mm | - | - | - |
| 1777851818 | 20.56° C | 48% | 1010.8 hPa | 0.51 mm | - | - | - |
| 1777850017 | 21.11° C | 44% | 1010.9 hPa | 0.51 mm | - | - | - |
| 1777848216 | 21.11° C | 45% | 1011 hPa | 0.51 mm | - | - | - |
| 1777846416 | 20.56° C | 50% | 1011 hPa | 0.51 mm | - | - | - |
| 1777844615 | 20.56° C | 47% | 1010.6 hPa | 0.51 mm | - | - | - |
| 1777842814 | 20.56° C | 53% | 1010.2 hPa | 0.51 mm | - | - | - |
| 1777841013 | 21.11° C | 45% | 1010.1 hPa | 0.51 mm | - | - | - |
| 1777839213 | 22.22° C | 45% | 1010.1 hPa | 0.51 mm | - | - | - |
| 1777837412 | 23.33° C | 42% | 1010.2 hPa | 0.51 mm | - | - | - |
| 1777835610 | 23.33° C | 41% | 1010.1 hPa | 0.51 mm | - | - | - |
| 1777833810 | 22.78° C | 46% | 1009.6 hPa | 0.51 mm | - | - | - |
| 1777832003 | 24.44° C | 40% | 1009.4 hPa | 0.51 mm | - | - | - |
| 1777830203 | 25.56° C | 39% | 1009.4 hPa | 0.51 mm | - | - | - |
| 1777828398 | 26.67° C | 32% | 1009.5 hPa | 0.51 mm | - | - | - |
| 1777826597 | 27.78° C | 28% | 1009.5 hPa | 0.51 mm | - | - | - |
| 1777824797 | 27.78° C | 25% | 1009.7 hPa | 0.51 mm | - | - | - |
| 1777822995 | 27.78° C | 25% | 1009.7 hPa | 0.51 mm | - | - | - |
| 1777821194 | 28.33° C | 23% | 1010 hPa | 0.51 mm | - | - | - |
| 1777819393 | 28.33° C | 23% | 1010.3 hPa | 0.51 mm | - | - | - |
* Rain since midnight (hover to see other rain measurements)
** Current wind speed in m/s (hover to see current wind gust speed)